sensor_id;sensor_type;location;lat;lon;timestamp;P1;durP1;ratioP1;P2;durP2;ratioP2
55346;SDS011;41218;55.700;38.270;2023-04-29T00:03:15;2.50;;;1.70;;
55346;SDS011;41218;55.700;38.270;2023-04-29T00:13:16;2.27;;;1.43;;
55346;SDS011;41218;55.700;38.270;2023-04-29T00:18:17;1.60;;;1.10;;
55346;SDS011;41218;55.700;38.270;2023-04-29T00:23:18;1.70;;;1.30;;
55346;SDS011;41218;55.700;38.270;2023-04-29T00:28:18;1.87;;;1.03;;
55346;SDS011;41218;55.700;38.270;2023-04-29T00:33:19;1.95;;;0.77;;
55346;SDS011;41218;55.700;38.270;2023-04-29T00:38:20;0.50;;;0.50;;
55346;SDS011;41218;55.700;38.270;2023-04-29T00:43:20;1.70;;;0.87;;
55346;SDS011;41218;55.700;38.270;2023-04-29T00:48:21;1.10;;;0.63;;
55346;SDS011;41218;55.700;38.270;2023-04-29T00:53:21;0.43;;;0.43;;
55346;SDS011;41218;55.700;38.270;2023-04-29T00:58:22;0.30;;;0.30;;
55346;SDS011;41218;55.700;38.270;2023-04-29T01:03:29;1.15;;;0.90;;
55346;SDS011;41218;55.700;38.270;2023-04-29T01:08:37;0.85;;;0.80;;
55346;SDS011;41218;55.700;38.270;2023-04-29T01:14:08;1.70;;;1.08;;
55346;SDS011;41218;55.700;38.270;2023-04-29T01:19:15;1.17;;;0.82;;
55346;SDS011;41218;55.700;38.270;2023-04-29T01:24:32;2.83;;;1.13;;
55346;SDS011;41218;55.700;38.270;2023-04-29T01:29:39;1.53;;;1.07;;
55346;SDS011;41218;55.700;38.270;2023-04-29T01:34:57;1.23;;;0.85;;
55346;SDS011;41218;55.700;38.270;2023-04-29T01:40:19;1.63;;;1.02;;
55346;SDS011;41218;55.700;38.270;2023-04-29T01:45:26;0.95;;;0.70;;
55346;SDS011;41218;55.700;38.270;2023-04-29T01:50:30;1.75;;;1.00;;
55346;SDS011;41218;55.700;38.270;2023-04-29T01:55:31;1.33;;;0.95;;
55346;SDS011;41218;55.700;38.270;2023-04-29T02:00:32;1.20;;;0.80;;
55346;SDS011;41218;55.700;38.270;2023-04-29T02:05:32;0.93;;;0.60;;
55346;SDS011;41218;55.700;38.270;2023-04-29T02:10:33;0.87;;;0.80;;
55346;SDS011;41218;55.700;38.270;2023-04-29T02:15:33;1.43;;;0.60;;
55346;SDS011;41218;55.700;38.270;2023-04-29T02:20:34;0.80;;;0.60;;
55346;SDS011;41218;55.700;38.270;2023-04-29T02:25:34;1.17;;;0.60;;
55346;SDS011;41218;55.700;38.270;2023-04-29T02:30:35;1.17;;;0.63;;
55346;SDS011;41218;55.700;38.270;2023-04-29T02:35:36;0.77;;;0.60;;
55346;SDS011;41218;55.700;38.270;2023-04-29T02:40:40;1.40;;;0.70;;
55346;SDS011;41218;55.700;38.270;2023-04-29T02:45:41;0.50;;;0.50;;
55346;SDS011;41218;55.700;38.270;2023-04-29T02:50:41;0.70;;;0.60;;
55346;SDS011;41218;55.700;38.270;2023-04-29T02:55:42;0.70;;;0.47;;
55346;SDS011;41218;55.700;38.270;2023-04-29T03:00:43;0.43;;;0.43;;
55346;SDS011;41218;55.700;38.270;2023-04-29T03:05:43;1.03;;;0.63;;
55346;SDS011;41218;55.700;38.270;2023-04-29T03:10:44;1.63;;;0.60;;
55346;SDS011;41218;55.700;38.270;2023-04-29T03:15:45;0.20;;;0.20;;
55346;SDS011;41218;55.700;38.270;2023-04-29T03:20:46;0.50;;;0.43;;
55346;SDS011;41218;55.700;38.270;2023-04-29T03:25:46;0.67;;;0.47;;
55346;SDS011;41218;55.700;38.270;2023-04-29T03:30:47;0.40;;;0.30;;
55346;SDS011;41218;55.700;38.270;2023-04-29T03:35:47;2.40;;;0.50;;
55346;SDS011;41218;55.700;38.270;2023-04-29T03:40:48;1.00;;;0.60;;
55346;SDS011;41218;55.700;38.270;2023-04-29T03:45:48;0.77;;;0.60;;
55346;SDS011;41218;55.700;38.270;2023-04-29T03:50:49;1.00;;;0.60;;
55346;SDS011;41218;55.700;38.270;2023-04-29T03:55:49;0.80;;;0.53;;
55346;SDS011;41218;55.700;38.270;2023-04-29T04:00:50;1.03;;;0.80;;
55346;SDS011;41218;55.700;38.270;2023-04-29T04:05:51;0.70;;;0.63;;
55346;SDS011;41218;55.700;38.270;2023-04-29T04:10:51;0.73;;;0.60;;
55346;SDS011;41218;55.700;38.270;2023-04-29T04:15:52;1.37;;;0.77;;
55346;SDS011;41218;55.700;38.270;2023-04-29T04:20:52;1.63;;;0.70;;
55346;SDS011;41218;55.700;38.270;2023-04-29T04:25:52;0.90;;;0.60;;
55346;SDS011;41218;55.700;38.270;2023-04-29T04:30:53;3.33;;;1.10;;
55346;SDS011;41218;55.700;38.270;2023-04-29T04:35:54;1.00;;;0.60;;
55346;SDS011;41218;55.700;38.270;2023-04-29T04:40:57;1.08;;;0.90;;
55346;SDS011;41218;55.700;38.270;2023-04-29T04:45:57;1.67;;;1.17;;
55346;SDS011;41218;55.700;38.270;2023-04-29T04:50:58;1.97;;;1.10;;
55346;SDS011;41218;55.700;38.270;2023-04-29T04:56:02;2.30;;;1.60;;
55346;SDS011;41218;55.700;38.270;2023-04-29T05:01:03;2.17;;;1.23;;
55346;SDS011;41218;55.700;38.270;2023-04-29T05:06:04;2.60;;;1.30;;
55346;SDS011;41218;55.700;38.270;2023-04-29T05:11:23;2.83;;;1.20;;
55346;SDS011;41218;55.700;38.270;2023-04-29T05:16:24;2.47;;;1.50;;
55346;SDS011;41218;55.700;38.270;2023-04-29T05:21:24;2.20;;;1.50;;
55346;SDS011;41218;55.700;38.270;2023-04-29T05:26:25;2.47;;;1.40;;
55346;SDS011;41218;55.700;38.270;2023-04-29T05:31:25;5.07;;;1.60;;
55346;SDS011;41218;55.700;38.270;2023-04-29T05:36:27;1.80;;;1.20;;
55346;SDS011;41218;55.700;38.270;2023-04-29T05:41:28;2.47;;;1.20;;
55346;SDS011;41218;55.700;38.270;2023-04-29T05:46:28;2.70;;;1.40;;
55346;SDS011;41218;55.700;38.270;2023-04-29T05:51:29;2.03;;;1.20;;
55346;SDS011;41218;55.700;38.270;2023-04-29T05:56:30;1.42;;;1.13;;
55346;SDS011;41218;55.700;38.270;2023-04-29T06:01:31;1.30;;;1.00;;
55346;SDS011;41218;55.700;38.270;2023-04-29T06:06:33;1.85;;;1.30;;
55346;SDS011;41218;55.700;38.270;2023-04-29T06:11:33;3.90;;;1.37;;
55346;SDS011;41218;55.700;38.270;2023-04-29T06:16:34;2.43;;;1.50;;
55346;SDS011;41218;55.700;38.270;2023-04-29T06:21:34;4.20;;;1.57;;
55346;SDS011;41218;55.700;38.270;2023-04-29T06:26:35;2.37;;;1.30;;
55346;SDS011;41218;55.700;38.270;2023-04-29T06:31:36;2.80;;;1.40;;
55346;SDS011;41218;55.700;38.270;2023-04-29T06:36:37;2.42;;;1.33;;
55346;SDS011;41218;55.700;38.270;2023-04-29T06:41:37;2.80;;;1.60;;
55346;SDS011;41218;55.700;38.270;2023-04-29T06:46:39;3.40;;;1.77;;
55346;SDS011;41218;55.700;38.270;2023-04-29T06:51:40;2.67;;;1.80;;
55346;SDS011;41218;55.700;38.270;2023-04-29T07:01:42;2.50;;;1.50;;
55346;SDS011;41218;55.700;38.270;2023-04-29T07:06:42;2.67;;;1.67;;
55346;SDS011;41218;55.700;38.270;2023-04-29T07:11:45;2.60;;;1.83;;
55346;SDS011;41218;55.700;38.270;2023-04-29T07:16:46;3.90;;;1.90;;
55346;SDS011;41218;55.700;38.270;2023-04-29T07:21:47;5.47;;;2.25;;
55346;SDS011;41218;55.700;38.270;2023-04-29T07:26:47;3.77;;;2.50;;
55346;SDS011;41218;55.700;38.270;2023-04-29T07:31:48;4.60;;;2.33;;
55346;SDS011;41218;55.700;38.270;2023-04-29T07:36:48;3.63;;;2.30;;
55346;SDS011;41218;55.700;38.270;2023-04-29T07:41:49;4.90;;;2.67;;
55346;SDS011;41218;55.700;38.270;2023-04-29T07:46:51;4.05;;;1.88;;
55346;SDS011;41218;55.700;38.270;2023-04-29T07:51:51;3.40;;;1.77;;
55346;SDS011;41218;55.700;38.270;2023-04-29T07:56:52;7.13;;;3.47;;
55346;SDS011;41218;55.700;38.270;2023-04-29T08:01:52;4.10;;;2.80;;
55346;SDS011;41218;55.700;38.270;2023-04-29T08:06:53;6.03;;;3.10;;
55346;SDS011;41218;55.700;38.270;2023-04-29T08:11:53;1.93;;;1.30;;
55346;SDS011;41218;55.700;38.270;2023-04-29T08:16:54;6.70;;;3.30;;
55346;SDS011;41218;55.700;38.270;2023-04-29T08:21:54;7.70;;;2.80;;
55346;SDS011;41218;55.700;38.270;2023-04-29T08:26:55;7.20;;;3.57;;
55346;SDS011;41218;55.700;38.270;2023-04-29T08:31:55;5.90;;;3.33;;
55346;SDS011;41218;55.700;38.270;2023-04-29T08:36:56;5.57;;;3.50;;
55346;SDS011;41218;55.700;38.270;2023-04-29T08:41:56;5.33;;;2.97;;
55346;SDS011;41218;55.700;38.270;2023-04-29T08:46:58;5.78;;;3.50;;
55346;SDS011;41218;55.700;38.270;2023-04-29T08:51:59;4.50;;;3.53;;
55346;SDS011;41218;55.700;38.270;2023-04-29T08:57:01;6.85;;;3.00;;
55346;SDS011;41218;55.700;38.270;2023-04-29T09:02:05;7.18;;;3.28;;
55346;SDS011;41218;55.700;38.270;2023-04-29T09:07:16;6.15;;;3.40;;
55346;SDS011;41218;55.700;38.270;2023-04-29T09:12:17;5.32;;;3.15;;
55346;SDS011;41218;55.700;38.270;2023-04-29T09:17:17;3.90;;;2.70;;
55346;SDS011;41218;55.700;38.270;2023-04-29T09:22:25;5.32;;;2.88;;
55346;SDS011;41218;55.700;38.270;2023-04-29T09:27:46;3.78;;;2.85;;
55346;SDS011;41218;55.700;38.270;2023-04-29T09:33:06;5.87;;;2.97;;
55346;SDS011;41218;55.700;38.270;2023-04-29T09:38:11;3.73;;;2.43;;
55346;SDS011;41218;55.700;38.270;2023-04-29T09:43:13;6.10;;;2.88;;
55346;SDS011;41218;55.700;38.270;2023-04-29T09:48:15;5.97;;;3.00;;
55346;SDS011;41218;55.700;38.270;2023-04-29T09:53:26;4.82;;;2.95;;
55346;SDS011;41218;55.700;38.270;2023-04-29T09:58:29;4.20;;;3.00;;
55346;SDS011;41218;55.700;38.270;2023-04-29T10:03:37;8.27;;;3.33;;
55346;SDS011;41218;55.700;38.270;2023-04-29T10:08:38;4.63;;;2.83;;
55346;SDS011;41218;55.700;38.270;2023-04-29T10:13:41;4.13;;;2.78;;
55346;SDS011;41218;55.700;38.270;2023-04-29T10:18:43;4.53;;;2.70;;
55346;SDS011;41218;55.700;38.270;2023-04-29T10:23:51;2.45;;;1.77;;
55346;SDS011;41218;55.700;38.270;2023-04-29T10:28:54;5.68;;;2.75;;
55346;SDS011;41218;55.700;38.270;2023-04-29T10:33:56;5.00;;;2.80;;
55346;SDS011;41218;55.700;38.270;2023-04-29T10:38:58;3.95;;;2.50;;
55346;SDS011;41218;55.700;38.270;2023-04-29T10:44:00;4.13;;;2.17;;
55346;SDS011;41218;55.700;38.270;2023-04-29T10:49:03;3.80;;;2.30;;
55346;SDS011;41218;55.700;38.270;2023-04-29T10:54:07;5.07;;;2.30;;
55346;SDS011;41218;55.700;38.270;2023-04-29T10:59:13;4.85;;;2.08;;
55346;SDS011;41218;55.700;38.270;2023-04-29T11:04:15;3.08;;;2.05;;
55346;SDS011;41218;55.700;38.270;2023-04-29T11:09:20;3.70;;;2.05;;
55346;SDS011;41218;55.700;38.270;2023-04-29T11:19:30;3.95;;;2.45;;
55346;SDS011;41218;55.700;38.270;2023-04-29T11:24:33;3.75;;;1.80;;
55346;SDS011;41218;55.700;38.270;2023-04-29T11:29:35;2.58;;;1.80;;
55346;SDS011;41218;55.700;38.270;2023-04-29T11:34:35;2.60;;;1.57;;
55346;SDS011;41218;55.700;38.270;2023-04-29T11:39:36;3.03;;;1.90;;
55346;SDS011;41218;55.700;38.270;2023-04-29T11:44:36;3.40;;;1.77;;
55346;SDS011;41218;55.700;38.270;2023-04-29T11:49:37;3.07;;;1.97;;
55346;SDS011;41218;55.700;38.270;2023-04-29T11:54:39;3.67;;;1.93;;
55346;SDS011;41218;55.700;38.270;2023-04-29T11:59:41;3.28;;;1.50;;
55346;SDS011;41218;55.700;38.270;2023-04-29T12:09:48;2.70;;;1.65;;
55346;SDS011;41218;55.700;38.270;2023-04-29T12:14:48;3.10;;;1.90;;
55346;SDS011;41218;55.700;38.270;2023-04-29T12:19:49;4.05;;;1.60;;
55346;SDS011;41218;55.700;38.270;2023-04-29T12:24:51;2.83;;;1.67;;
55346;SDS011;41218;55.700;38.270;2023-04-29T12:29:53;2.72;;;1.80;;
55346;SDS011;41218;55.700;38.270;2023-04-29T12:34:53;2.97;;;1.80;;
55346;SDS011;41218;55.700;38.270;2023-04-29T12:39:54;3.05;;;2.00;;
55346;SDS011;41218;55.700;38.270;2023-04-29T12:44:55;2.83;;;1.60;;
55346;SDS011;41218;55.700;38.270;2023-04-29T12:49:55;1.73;;;1.33;;
55346;SDS011;41218;55.700;38.270;2023-04-29T12:54:56;3.35;;;1.80;;
55346;SDS011;41218;55.700;38.270;2023-04-29T12:59:57;2.33;;;1.67;;
55346;SDS011;41218;55.700;38.270;2023-04-29T13:04:57;2.50;;;1.80;;
55346;SDS011;41218;55.700;38.270;2023-04-29T13:09:58;2.27;;;1.53;;
55346;SDS011;41218;55.700;38.270;2023-04-29T13:14:58;2.40;;;1.70;;
55346;SDS011;41218;55.700;38.270;2023-04-29T13:19:59;3.50;;;1.50;;
55346;SDS011;41218;55.700;38.270;2023-04-29T13:24:59;3.13;;;1.90;;
55346;SDS011;41218;55.700;38.270;2023-04-29T13:30:00;3.90;;;2.23;;
55346;SDS011;41218;55.700;38.270;2023-04-29T13:35:01;3.60;;;2.10;;
55346;SDS011;41218;55.700;38.270;2023-04-29T13:40:03;4.03;;;1.40;;
55346;SDS011;41218;55.700;38.270;2023-04-29T13:45:06;2.70;;;1.95;;
55346;SDS011;41218;55.700;38.270;2023-04-29T13:50:07;3.17;;;1.80;;
55346;SDS011;41218;55.700;38.270;2023-04-29T13:55:08;3.13;;;1.80;;
55346;SDS011;41218;55.700;38.270;2023-04-29T14:00:09;4.53;;;2.17;;
55346;SDS011;41218;55.700;38.270;2023-04-29T14:10:10;3.23;;;1.97;;
55346;SDS011;41218;55.700;38.270;2023-04-29T14:15:11;3.40;;;2.20;;
55346;SDS011;41218;55.700;38.270;2023-04-29T14:20:11;5.67;;;2.20;;
55346;SDS011;41218;55.700;38.270;2023-04-29T14:25:12;3.78;;;1.80;;
55346;SDS011;41218;55.700;38.270;2023-04-29T14:30:13;4.07;;;1.90;;
55346;SDS011;41218;55.700;38.270;2023-04-29T14:35:13;3.60;;;2.00;;
55346;SDS011;41218;55.700;38.270;2023-04-29T14:40:14;2.20;;;1.60;;
55346;SDS011;41218;55.700;38.270;2023-04-29T14:45:15;2.28;;;1.80;;
55346;SDS011;41218;55.700;38.270;2023-04-29T14:50:16;3.42;;;1.98;;
55346;SDS011;41218;55.700;38.270;2023-04-29T14:55:17;3.30;;;2.25;;
55346;SDS011;41218;55.700;38.270;2023-04-29T15:00:17;3.33;;;1.63;;
55346;SDS011;41218;55.700;38.270;2023-04-29T15:05:18;3.05;;;1.85;;
55346;SDS011;41218;55.700;38.270;2023-04-29T15:10:19;4.73;;;1.93;;
55346;SDS011;41218;55.700;38.270;2023-04-29T15:15:20;5.00;;;1.80;;
55346;SDS011;41218;55.700;38.270;2023-04-29T15:20:21;4.82;;;2.10;;
55346;SDS011;41218;55.700;38.270;2023-04-29T15:25:21;3.10;;;2.00;;
55346;SDS011;41218;55.700;38.270;2023-04-29T15:30:22;3.67;;;1.90;;
55346;SDS011;41218;55.700;38.270;2023-04-29T15:35:23;4.73;;;2.03;;
55346;SDS011;41218;55.700;38.270;2023-04-29T15:40:23;6.43;;;2.00;;
55346;SDS011;41218;55.700;38.270;2023-04-29T15:45:24;6.63;;;2.10;;
55346;SDS011;41218;55.700;38.270;2023-04-29T15:50:25;3.30;;;1.80;;
55346;SDS011;41218;55.700;38.270;2023-04-29T15:55:25;3.67;;;2.00;;
55346;SDS011;41218;55.700;38.270;2023-04-29T16:00:26;2.40;;;1.77;;
55346;SDS011;41218;55.700;38.270;2023-04-29T16:05:26;2.53;;;1.80;;
55346;SDS011;41218;55.700;38.270;2023-04-29T16:10:27;3.88;;;1.95;;
55346;SDS011;41218;55.700;38.270;2023-04-29T16:15:28;4.30;;;1.93;;
55346;SDS011;41218;55.700;38.270;2023-04-29T16:20:29;3.93;;;1.80;;
55346;SDS011;41218;55.700;38.270;2023-04-29T16:25:29;2.97;;;1.77;;
55346;SDS011;41218;55.700;38.270;2023-04-29T16:30:30;5.37;;;1.80;;
55346;SDS011;41218;55.700;38.270;2023-04-29T16:35:30;2.90;;;1.87;;
55346;SDS011;41218;55.700;38.270;2023-04-29T16:40:31;3.87;;;2.00;;
55346;SDS011;41218;55.700;38.270;2023-04-29T16:45:31;3.20;;;1.90;;
55346;SDS011;41218;55.700;38.270;2023-04-29T16:50:32;3.50;;;2.07;;
55346;SDS011;41218;55.700;38.270;2023-04-29T16:55:35;2.88;;;1.63;;
55346;SDS011;41218;55.700;38.270;2023-04-29T17:00:35;3.53;;;2.00;;
55346;SDS011;41218;55.700;38.270;2023-04-29T17:05:36;2.80;;;1.70;;
55346;SDS011;41218;55.700;38.270;2023-04-29T17:10:37;3.38;;;1.92;;
55346;SDS011;41218;55.700;38.270;2023-04-29T17:15:38;3.13;;;2.10;;
55346;SDS011;41218;55.700;38.270;2023-04-29T17:20:39;3.25;;;2.00;;
55346;SDS011;41218;55.700;38.270;2023-04-29T17:25:41;2.70;;;1.95;;
55346;SDS011;41218;55.700;38.270;2023-04-29T17:30:41;8.80;;;4.83;;
55346;SDS011;41218;55.700;38.270;2023-04-29T17:35:42;14.13;;;6.70;;
55346;SDS011;41218;55.700;38.270;2023-04-29T17:40:43;12.65;;;5.68;;
55346;SDS011;41218;55.700;38.270;2023-04-29T17:45:43;17.73;;;9.53;;
55346;SDS011;41218;55.700;38.270;2023-04-29T17:50:45;16.00;;;7.17;;
55346;SDS011;41218;55.700;38.270;2023-04-29T17:55:46;9.55;;;4.57;;
55346;SDS011;41218;55.700;38.270;2023-04-29T18:00:46;11.33;;;5.70;;
55346;SDS011;41218;55.700;38.270;2023-04-29T18:05:48;7.78;;;4.35;;
55346;SDS011;41218;55.700;38.270;2023-04-29T18:10:48;9.43;;;4.28;;
55346;SDS011;41218;55.700;38.270;2023-04-29T18:15:49;5.83;;;3.60;;
55346;SDS011;41218;55.700;38.270;2023-04-29T18:20:50;5.03;;;2.80;;
55346;SDS011;41218;55.700;38.270;2023-04-29T18:25:50;5.50;;;2.95;;
55346;SDS011;41218;55.700;38.270;2023-04-29T18:30:51;6.17;;;3.53;;
55346;SDS011;41218;55.700;38.270;2023-04-29T18:35:52;6.73;;;3.50;;
55346;SDS011;41218;55.700;38.270;2023-04-29T18:45:54;6.03;;;3.70;;
55346;SDS011;41218;55.700;38.270;2023-04-29T18:50:56;5.13;;;3.10;;
55346;SDS011;41218;55.700;38.270;2023-04-29T18:56:02;6.03;;;2.95;;
55346;SDS011;41218;55.700;38.270;2023-04-29T19:01:03;8.77;;;3.67;;
55346;SDS011;41218;55.700;38.270;2023-04-29T19:06:04;7.13;;;4.67;;
55346;SDS011;41218;55.700;38.270;2023-04-29T19:11:04;7.03;;;4.90;;
55346;SDS011;41218;55.700;38.270;2023-04-29T19:16:05;9.83;;;5.40;;
55346;SDS011;41218;55.700;38.270;2023-04-29T19:21:05;12.43;;;6.90;;
55346;SDS011;41218;55.700;38.270;2023-04-29T19:26:06;10.87;;;7.17;;
55346;SDS011;41218;55.700;38.270;2023-04-29T19:31:07;11.00;;;6.10;;
55346;SDS011;41218;55.700;38.270;2023-04-29T19:36:09;11.73;;;7.10;;
55346;SDS011;41218;55.700;38.270;2023-04-29T19:41:11;12.93;;;7.78;;
55346;SDS011;41218;55.700;38.270;2023-04-29T19:46:12;15.68;;;8.02;;
55346;SDS011;41218;55.700;38.270;2023-04-29T19:51:13;13.07;;;7.28;;
55346;SDS011;41218;55.700;38.270;2023-04-29T19:56:14;14.57;;;7.47;;
55346;SDS011;41218;55.700;38.270;2023-04-29T20:01:15;8.18;;;5.50;;
55346;SDS011;41218;55.700;38.270;2023-04-29T20:06:15;12.03;;;6.80;;
55346;SDS011;41218;55.700;38.270;2023-04-29T20:11:16;10.83;;;6.63;;
55346;SDS011;41218;55.700;38.270;2023-04-29T20:16:17;11.93;;;7.47;;
55346;SDS011;41218;55.700;38.270;2023-04-29T20:21:17;11.83;;;7.07;;
55346;SDS011;41218;55.700;38.270;2023-04-29T20:26:18;17.33;;;8.17;;
55346;SDS011;41218;55.700;38.270;2023-04-29T20:31:18;15.43;;;8.60;;
55346;SDS011;41218;55.700;38.270;2023-04-29T20:36:19;13.23;;;7.70;;
55346;SDS011;41218;55.700;38.270;2023-04-29T20:41:20;19.58;;;9.38;;
55346;SDS011;41218;55.700;38.270;2023-04-29T20:46:21;16.43;;;8.93;;
55346;SDS011;41218;55.700;38.270;2023-04-29T20:51:21;14.50;;;7.60;;
55346;SDS011;41218;55.700;38.270;2023-04-29T20:56:22;14.53;;;8.17;;
55346;SDS011;41218;55.700;38.270;2023-04-29T21:01:22;15.33;;;7.77;;
55346;SDS011;41218;55.700;38.270;2023-04-29T21:06:26;12.93;;;6.95;;
55346;SDS011;41218;55.700;38.270;2023-04-29T21:11:27;11.70;;;6.43;;
55346;SDS011;41218;55.700;38.270;2023-04-29T21:16:27;10.47;;;6.53;;
55346;SDS011;41218;55.700;38.270;2023-04-29T21:21:28;10.73;;;6.27;;
55346;SDS011;41218;55.700;38.270;2023-04-29T21:26:30;10.18;;;5.75;;
55346;SDS011;41218;55.700;38.270;2023-04-29T21:31:31;11.07;;;5.83;;
55346;SDS011;41218;55.700;38.270;2023-04-29T21:36:31;9.93;;;5.90;;
55346;SDS011;41218;55.700;38.270;2023-04-29T21:41:33;12.93;;;6.17;;
55346;SDS011;41218;55.700;38.270;2023-04-29T21:46:38;10.05;;;5.53;;
55346;SDS011;41218;55.700;38.270;2023-04-29T21:51:39;10.90;;;6.30;;
55346;SDS011;41218;55.700;38.270;2023-04-29T21:56:40;13.83;;;6.20;;
55346;SDS011;41218;55.700;38.270;2023-04-29T22:01:40;11.27;;;6.03;;
55346;SDS011;41218;55.700;38.270;2023-04-29T22:06:44;9.95;;;5.60;;
55346;SDS011;41218;55.700;38.270;2023-04-29T22:11:44;11.90;;;6.30;;
55346;SDS011;41218;55.700;38.270;2023-04-29T22:16:45;9.87;;;5.53;;
55346;SDS011;41218;55.700;38.270;2023-04-29T22:21:45;11.90;;;5.90;;
55346;SDS011;41218;55.700;38.270;2023-04-29T22:26:46;9.60;;;5.27;;
55346;SDS011;41218;55.700;38.270;2023-04-29T22:31:46;9.40;;;5.50;;
55346;SDS011;41218;55.700;38.270;2023-04-29T22:36:47;11.33;;;5.90;;
55346;SDS011;41218;55.700;38.270;2023-04-29T22:41:48;12.70;;;5.73;;
55346;SDS011;41218;55.700;38.270;2023-04-29T22:46:48;10.93;;;5.77;;
55346;SDS011;41218;55.700;38.270;2023-04-29T22:51:49;10.63;;;5.43;;
55346;SDS011;41218;55.700;38.270;2023-04-29T22:56:49;11.00;;;5.53;;
55346;SDS011;41218;55.700;38.270;2023-04-29T23:01:50;11.20;;;5.90;;
55346;SDS011;41218;55.700;38.270;2023-04-29T23:06:51;14.77;;;6.40;;
55346;SDS011;41218;55.700;38.270;2023-04-29T23:11:51;11.73;;;6.00;;
55346;SDS011;41218;55.700;38.270;2023-04-29T23:16:52;11.73;;;5.80;;
55346;SDS011;41218;55.700;38.270;2023-04-29T23:21:53;14.27;;;6.10;;
55346;SDS011;41218;55.700;38.270;2023-04-29T23:26:53;11.63;;;6.30;;
55346;SDS011;41218;55.700;38.270;2023-04-29T23:31:54;10.10;;;5.83;;
55346;SDS011;41218;55.700;38.270;2023-04-29T23:36:54;11.47;;;6.23;;
55346;SDS011;41218;55.700;38.270;2023-04-29T23:41:55;15.30;;;7.07;;
55346;SDS011;41218;55.700;38.270;2023-04-29T23:46:55;16.40;;;7.40;;
55346;SDS011;41218;55.700;38.270;2023-04-29T23:51:56;13.70;;;7.10;;
55346;SDS011;41218;55.700;38.270;2023-04-29T23:56:56;16.67;;;7.03;;
